Time;durP1;ratioP1;P1;durP2;ratioP2;P2;SDS_P1;SDS_P2;PMS_P1;PMS_P2;Temp;Humidity;BMP_temperature;BMP_pressure;BME280_temperature;BME280_humidity;BME280_pressure;Samples;Min_cycle;Max_cycle;Signal;HPM_P1;HPM_P2
2023/02/08 00:01:23;;;;;;;38.58;16.10;;;;;;;-4.99;100.00;99199.75;5072809;28;20031;-77
2023/02/08 00:03:49;;;;;;;41.38;17.35;;;;;;;-5.13;100.00;99183.72;5071630;28;20352;-79
2023/02/08 00:06:16;;;;;;;39.42;15.55;;;;;;;-5.15;100.00;99188.03;5087334;28;20023;-79
2023/02/08 00:08:41;;;;;;;36.00;15.63;;;;;;;-5.08;100.00;99200.41;5065167;28;20031;-79
2023/02/08 00:11:09;;;;;;;41.15;16.05;;;;;;;-5.07;100.00;99209.09;5067744;28;20023;-79
2023/02/08 00:13:35;;;;;;;41.90;16.40;;;;;;;-5.08;100.00;99216.06;5076331;28;20028;-79
2023/02/08 00:16:49;;;;;;;;;;;;;;;;;;;;;
2023/02/08 00:19:15;;;;;;;30.83;12.07;;;;;;;-5.08;100.00;99200.41;5091778;28;20042;-80
2023/02/08 00:21:40;;;;;;;36.38;13.85;;;;;;;-5.02;100.00;99216.22;5081688;28;20103;-78
2023/02/08 00:24:06;;;;;;;34.58;14.70;;;;;;;-5.11;100.00;99213.38;5065060;28;20032;-79
2023/02/08 00:26:32;;;;;;;36.38;13.57;;;;;;;-5.19;100.00;99217.47;5062017;28;20503;-79
2023/02/08 00:28:57;;;;;;;38.47;14.82;;;;;;;-5.19;100.00;99216.59;5073912;28;20031;-78
2023/02/08 00:31:23;;;;;;;39.80;16.40;;;;;;;-5.15;100.00;99239.31;5073621;28;20019;-79
2023/02/08 00:33:48;;;;;;;32.47;14.23;;;;;;;-5.14;100.00;99234.16;5085089;28;20032;-79
2023/02/08 00:36:14;;;;;;;34.65;15.10;;;;;;;-5.07;100.00;99254.31;5065603;28;20093;-79
2023/02/08 00:38:39;;;;;;;34.20;14.98;;;;;;;-5.05;100.00;99251.75;5065208;28;20048;-78
2023/02/08 00:41:05;;;;;;;40.35;13.88;;;;;;;-5.06;100.00;99249.97;5070824;28;20035;-78
2023/02/08 00:43:30;;;;;;;35.75;13.38;;;;;;;-5.11;100.00;99252.47;5067843;28;20475;-78
2023/02/08 00:45:57;;;;;;;38.75;13.65;;;;;;;-5.02;100.00;99250.13;5067982;28;20031;-78
2023/02/08 00:48:23;;;;;;;26.95;13.18;;;;;;;-5.04;100.00;99243.06;5067451;28;20031;-78
2023/02/08 00:51:19;;;;;;;34.67;13.05;;;;;;;-4.95;100.00;99259.84;5095921;28;20054;-79
2023/02/08 00:53:45;;;;;;;39.50;17.13;;;;;;;-4.93;100.00;99247.75;5092699;28;20037;-79
2023/02/08 00:56:12;;;;;;;38.72;15.15;;;;;;;-4.73;100.00;99255.19;5071542;28;20460;-79
2023/02/08 00:58:37;;;;;;;32.60;15.23;;;;;;;-4.76;100.00;99244.66;5063794;28;20446;-79
2023/02/08 01:01:04;;;;;;;39.13;16.42;;;;;;;-4.73;100.00;99245.63;5087449;28;20028;-79
2023/02/08 01:03:32;;;;;;;44.15;15.88;;;;;;;-4.59;100.00;99262.53;5083176;28;20028;-78
2023/02/08 01:06:03;;;;;;;34.38;14.32;;;;;;;-4.55;100.00;99260.84;5069581;28;20023;-79
2023/02/08 01:08:56;;;;;;;38.67;15.88;;;;;;;-4.59;100.00;99265.16;5073027;28;20031;-79
2023/02/08 01:11:26;;;;;;;34.92;14.50;;;;;;;-5.19;100.00;99156.59;5072543;28;20047;-79
2023/02/08 01:13:54;;;;;;;33.53;15.30;;;;;;;-4.57;100.00;99265.16;5063001;28;20030;-78
2023/02/08 01:16:25;;;;;;;39.05;15.63;;;;;;;-4.52;100.00;99271.41;5078955;28;20042;-77
2023/02/08 01:18:52;;;;;;;38.58;15.77;;;;;;;-4.51;100.00;99263.59;5075954;28;20482;-79
2023/02/08 01:21:20;;;;;;;36.13;16.23;;;;;;;-4.46;100.00;99261.13;5087873;28;20027;-79
2023/02/08 01:23:46;;;;;;;36.05;15.80;;;;;;;-4.41;100.00;99268.22;5058423;28;20042;-77
2023/02/08 01:26:13;;;;;;;36.97;14.57;;;;;;;-4.41;100.00;99269.94;5079050;28;20092;-78
2023/02/08 01:28:40;;;;;;;35.17;14.63;;;;;;;-4.48;100.00;99253.22;5065357;28;20504;-78
2023/02/08 01:33:56;;;;;;;40.30;16.23;;;;;;;-4.38;100.00;99270.00;5097457;28;20509;-78
2023/02/08 01:36:22;;;;;;;35.50;15.82;;;;;;;-4.53;100.00;99254.88;5058149;28;20494;-79
2023/02/08 01:38:47;;;;;;;35.80;14.90;;;;;;;-4.59;100.00;99256.44;5083227;28;20107;-78
2023/02/08 01:41:19;;;;;;;40.65;15.15;;;;;;;-4.71;100.00;99258.72;5092156;28;20398;-78
2023/02/08 01:44:03;;;;;;;36.97;14.77;;;;;;;-4.76;100.00;99258.59;5087308;28;20034;-79
2023/02/08 01:46:30;;;;;;;44.72;16.40;;;;;;;-4.79;100.00;99261.13;5086127;28;20081;-79
2023/02/08 01:49:00;;;;;;;37.63;15.88;;;;;;;-4.83;100.00;99261.91;5086674;28;20082;-79
2023/02/08 01:51:29;;;;;;;37.35;16.23;;;;;;;-4.97;100.00;99261.53;5069831;28;20115;-79
2023/02/08 01:53:56;;;;;;;40.05;18.20;;;;;;;-4.90;100.00;99272.13;5091668;28;20088;-78
2023/02/08 01:56:29;;;;;;;41.08;17.02;;;;;;;-4.89;100.00;99273.91;5058069;28;20035;-78
2023/02/08 01:58:57;;;;;;;43.63;17.20;;;;;;;-4.83;100.00;99268.84;5057188;28;20105;-79
2023/02/08 02:01:24;;;;;;;42.22;16.40;;;;;;;-4.79;100.00;99274.19;5058090;28;20028;-79
2023/02/08 02:03:49;;;;;;;39.50;14.57;;;;;;;-4.91;100.00;99279.06;5057754;28;20026;-78
2023/02/08 02:06:17;;;;;;;39.95;14.63;;;;;;;-4.85;100.00;99288.78;5074835;28;20017;-79
2023/02/08 02:08:52;;;;;;;31.58;13.40;;;;;;;-4.83;100.00;99288.00;5074776;28;20016;-80
2023/02/08 02:11:19;;;;;;;32.97;14.07;;;;;;;-4.84;100.00;99278.41;5057741;28;20062;-79
2023/02/08 02:13:45;;;;;;;31.92;12.82;;;;;;;-4.77;100.00;99284.69;5057723;28;20020;-79
2023/02/08 02:16:10;;;;;;;31.35;13.05;;;;;;;-4.74;100.00;99280.41;5053979;28;20045;-79
2023/02/08 02:18:36;;;;;;;30.77;12.13;;;;;;;-4.67;100.00;99300.59;5071115;28;20033;-79
2023/02/08 02:21:26;;;;;;;30.83;12.13;;;;;;;-4.56;100.00;99298.28;5054207;28;20381;-78
2023/02/08 02:24:13;;;;;;;30.05;12.63;;;;;;;-4.62;100.00;99292.91;5071057;28;20032;-79
2023/02/08 02:26:44;;;;;;;35.35;13.55;;;;;;;-4.53;100.00;99291.41;5072352;28;20056;-79
2023/02/08 02:30:04;;;;;;;18.15;8.95;;;;;;;-4.45;100.00;99304.63;5071052;28;20480;-80
2023/02/08 02:32:29;;;;;;;29.95;12.60;;;;;;;-4.44;100.00;99307.31;5070725;28;20495;-79
2023/02/08 02:35:17;;;;;;;27.95;12.77;;;;;;;-4.44;100.00;99301.19;5071960;28;20058;-79
2023/02/08 02:38:11;;;;;;;29.40;13.52;;;;;;;-4.47;100.00;99295.91;5070844;28;20024;-79
2023/02/08 02:40:49;;;;;;;31.50;13.93;;;;;;;-4.32;100.00;99311.06;5054697;28;20021;-80
2023/02/08 02:43:41;;;;;;;32.40;14.07;;;;;;;-4.47;100.00;99296.78;5092173;28;20029;-79
2023/02/08 02:46:26;;;;;;;33.22;14.90;;;;;;;-4.46;100.00;99305.50;5076157;28;20028;-79
2023/02/08 02:49:03;;;;;;;33.63;14.48;;;;;;;-4.51;100.00;99309.69;5071478;28;20055;-78
2023/02/08 02:51:48;;;;;;;39.08;15.13;;;;;;;-4.54;100.00;99318.34;5072115;28;20553;-79
2023/02/08 02:54:22;;;;;;;33.22;14.63;;;;;;;-4.45;100.00;99315.06;5070874;28;20028;-80
2023/02/08 02:56:50;;;;;;;39.05;14.70;;;;;;;-4.28;100.00;99318.13;5053949;28;20031;-80
2023/02/08 02:59:16;;;;;;;31.48;14.80;;;;;;;-4.34;100.00;99308.41;5070562;28;20051;-77
2023/02/08 03:01:44;;;;;;;36.83;13.15;;;;;;;-4.40;100.00;99316.94;5090603;28;20127;-78
2023/02/08 03:04:16;;;;;;;34.85;13.68;;;;;;;-4.35;100.00;99322.31;5090942;28;20020;-79
2023/02/08 03:06:51;;;;;;;33.83;12.52;;;;;;;-4.34;100.00;99321.47;5073687;28;20034;-79
2023/02/08 03:09:31;;;;;;;33.65;13.10;;;;;;;-4.29;100.00;99319.84;5091771;28;20032;-78
2023/02/08 03:12:21;;;;;;;30.23;12.13;;;;;;;-4.26;100.00;99325.16;5089207;28;20038;-79
2023/02/08 03:15:02;;;;;;;30.33;12.00;;;;;;;-4.26;100.00;99322.53;5080259;28;20495;-79
2023/02/08 03:18:03;;;;;;;27.65;11.13;;;;;;;-4.22;100.00;99332.22;5093673;28;20036;-79
2023/02/08 03:20:42;;;;;;;31.58;13.52;;;;;;;-4.22;100.00;99321.78;5082819;28;20524;-79
2023/02/08 03:23:17;;;;;;;34.15;12.18;;;;;;;-4.20;100.00;99317.47;5076864;28;20024;-79
2023/02/08 03:26:17;;;;;;;33.65;13.52;;;;;;;-4.03;100.00;99326.56;5085103;28;20020;-78
2023/02/08 03:29:07;;;;;;;35.17;14.82;;;;;;;-4.06;100.00;99336.94;5056703;28;20130;-79
2023/02/08 03:32:10;;;;;;;36.78;16.27;;;;;;;-3.97;100.00;99331.09;5078913;28;20042;-78
2023/02/08 03:34:58;;;;;;;42.58;17.05;;;;;;;-3.92;100.00;99335.56;5086452;28;20071;-78
2023/02/08 03:37:27;;;;;;;40.22;15.93;;;;;;;-3.89;100.00;99330.41;5072362;28;20028;-78
2023/02/08 03:39:59;;;;;;;32.13;14.57;;;;;;;-3.86;100.00;99332.22;5063281;28;20036;-78
2023/02/08 03:42:27;;;;;;;37.58;14.38;;;;;;;-3.97;100.00;99316.28;5076534;28;20093;-77
2023/02/08 03:45:00;;;;;;;42.88;16.73;;;;;;;-3.88;100.00;99326.97;5070554;28;20051;-77
2023/02/08 03:47:28;;;;;;;43.38;15.38;;;;;;;-3.90;100.00;99327.75;5079152;28;20019;-78
2023/02/08 03:49:56;;;;;;;34.10;14.23;;;;;;;-3.83;100.00;99325.34;5064705;28;20107;-79
2023/02/08 03:52:31;;;;;;;34.33;14.73;;;;;;;-3.83;100.00;99314.00;5071893;28;20054;-79
2023/02/08 03:55:02;;;;;;;43.10;14.30;;;;;;;-3.73;100.00;99322.94;5078780;28;20419;-78
2023/02/08 03:57:30;;;;;;;36.65;15.80;;;;;;;-3.79;100.00;99326.28;5072681;28;20016;-79
2023/02/08 04:00:05;;;;;;;40.05;16.65;;;;;;;-3.74;100.00;99335.13;5076770;28;20032;-78
2023/02/08 04:02:35;;;;;;;43.83;16.77;;;;;;;-3.83;100.00;99329.69;5067324;28;20028;-79
2023/02/08 04:05:01;;;;;;;39.33;15.35;;;;;;;-3.90;100.00;99339.09;5099962;28;20028;-78
2023/02/08 04:07:29;;;;;;;32.83;14.35;;;;;;;-3.92;100.00;99337.28;5087987;28;20118;-79
2023/02/08 04:09:54;;;;;;;39.03;15.02;;;;;;;-3.79;100.00;99346.31;5083799;28;20111;-78
2023/02/08 04:12:20;;;;;;;37.80;14.75;;;;;;;-3.69;100.00;99348.31;5064294;28;20107;-78
2023/02/08 04:14:45;;;;;;;60.28;21.88;;;;;;;-3.71;100.00;99344.75;5057771;28;20416;-78
2023/02/08 04:17:11;;;;;;;47.67;19.58;;;;;;;-3.75;100.00;99348.16;5060780;28;20037;-78
2023/02/08 04:19:37;;;;;;;61.05;22.00;;;;;;;-3.73;100.00;99362.13;5080355;28;20457;-78
2023/02/08 04:22:02;;;;;;;69.22;25.40;;;;;;;-3.79;100.00;99357.66;5072495;28;20545;-78
2023/02/08 04:24:28;;;;;;;85.55;29.02;;;;;;;-3.85;100.00;99366.25;5081772;28;20020;-77
2023/02/08 04:26:53;;;;;;;65.63;23.25;;;;;;;-3.86;100.00;99367.06;5081715;28;20032;-79
2023/02/08 04:29:19;;;;;;;56.38;22.25;;;;;;;-3.83;100.00;99374.09;5069871;28;20404;-78
2023/02/08 04:31:44;;;;;;;63.45;26.48;;;;;;;-3.83;100.00;99382.84;5056909;28;20028;-78
2023/02/08 04:34:10;;;;;;;52.85;21.38;;;;;;;-3.72;100.00;99387.44;5065681;28;20040;-78
2023/02/08 04:36:35;;;;;;;62.38;25.52;;;;;;;-3.76;100.00;99365.56;5069842;28;20038;-77
2023/02/08 04:39:01;;;;;;;52.70;21.85;;;;;;;-3.62;100.00;99390.28;5084988;28;20101;-79
2023/02/08 04:41:26;;;;;;;50.17;20.77;;;;;;;-3.71;100.00;99386.56;5070779;28;20044;-81
2023/02/08 04:43:52;;;;;;;48.17;19.70;;;;;;;-3.73;100.00;99398.75;5057842;28;20036;-79
2023/02/08 04:46:17;;;;;;;44.92;19.30;;;;;;;-3.66;100.00;99400.66;5064887;28;20127;-78
2023/02/08 04:48:43;;;;;;;42.97;18.08;;;;;;;-3.73;100.00;99390.91;5078683;28;20123;-80
2023/02/08 04:51:08;;;;;;;53.20;21.05;;;;;;;-3.81;100.00;99389.84;5063447;28;20035;-78
2023/02/08 04:53:34;;;;;;;54.38;20.33;;;;;;;-3.71;100.00;99408.38;5059734;28;20028;-76
2023/02/08 04:55:59;;;;;;;48.70;19.13;;;;;;;-3.71;100.00;99413.59;5061226;28;20032;-76
2023/02/08 04:58:25;;;;;;;44.55;17.45;;;;;;;-3.77;100.00;99417.78;5060552;28;20471;-76
2023/02/08 05:00:51;;;;;;;44.97;17.55;;;;;;;-3.90;100.00;99412.28;5064205;28;20028;-76
2023/02/08 05:03:17;;;;;;;39.47;16.83;;;;;;;-3.79;100.00;99436.06;5070346;28;20036;-77
2023/02/08 05:05:42;;;;;;;45.38;19.35;;;;;;;-3.86;100.00;99435.03;5055290;28;20027;-78
2023/02/08 05:08:08;;;;;;;47.10;18.27;;;;;;;-4.00;100.00;99430.31;5066657;28;20593;-76
2023/02/08 05:10:33;;;;;;;38.63;15.93;;;;;;;-4.01;100.00;99426.81;5092935;28;20080;-76
2023/02/08 05:12:59;;;;;;;32.72;14.90;;;;;;;-3.80;100.00;99449.09;5086863;28;20036;-77
2023/02/08 05:15:24;;;;;;;30.88;14.07;;;;;;;-3.88;100.00;99439.34;5077462;28;20131;-76
2023/02/08 05:17:50;;;;;;;36.58;13.75;;;;;;;-3.95;100.00;99436.53;5077720;28;20479;-80
2023/02/08 05:20:15;;;;;;;30.30;13.38;;;;;;;-3.94;100.00;99457.44;5082793;28;20158;-80
2023/02/08 05:22:41;;;;;;;30.35;13.43;;;;;;;-3.99;100.00;99455.56;5074407;28;20158;-79
2023/02/08 05:25:07;;;;;;;40.78;16.27;;;;;;;-4.23;100.00;99426.19;5055671;28;20060;-80
2023/02/08 05:27:34;;;;;;;32.15;14.45;;;;;;;-4.22;100.00;99449.75;5084116;28;20039;-79
2023/02/08 05:30:00;;;;;;;37.25;14.43;;;;;;;-4.27;100.00;99440.91;5069002;28;20125;-79
2023/02/08 05:32:26;;;;;;;47.47;17.15;;;;;;;-4.17;100.00;99460.31;5076775;28;20020;-80
2023/02/08 05:34:57;;;;;;;39.72;16.42;;;;;;;-4.16;100.00;99464.72;5094049;28;20028;-81
2023/02/08 05:37:25;;;;;;;47.83;19.10;;;;;;;-4.25;100.00;99465.34;5100095;28;20396;-78
2023/02/08 05:39:51;;;;;;;41.58;17.35;;;;;;;-4.31;100.00;99454.75;5079999;28;20034;-80
2023/02/08 05:42:17;;;;;;;42.58;20.20;;;;;;;-4.29;100.00;99468.72;5093471;28;20478;-79
2023/02/08 05:44:42;;;;;;;54.80;21.85;;;;;;;-4.37;100.00;99467.63;5091992;28;20061;-80
2023/02/08 05:47:08;;;;;;;41.25;18.45;;;;;;;-4.31;100.00;99474.75;5063372;28;20097;-79
2023/02/08 05:49:33;;;;;;;42.25;17.38;;;;;;;-4.41;100.00;99460.53;5055178;28;20032;-78
2023/02/08 05:51:59;;;;;;;45.88;18.67;;;;;;;-4.30;100.00;99487.81;5082543;28;20480;-80
2023/02/08 05:54:24;;;;;;;49.47;21.40;;;;;;;-4.43;100.00;99475.31;5068171;28;20039;-79
2023/02/08 05:56:50;;;;;;;55.53;23.45;;;;;;;-4.34;100.00;99496.44;5071757;28;20141;-79
2023/02/08 05:59:15;;;;;;;59.28;22.45;;;;;;;-4.31;100.00;99503.47;5085477;28;20019;-79
2023/02/08 06:02:01;;;;;;;101.32;38.20;;;;;;;-4.47;100.00;99491.72;5070871;28;20405;-80
2023/02/08 06:04:30;;;;;;;65.85;26.90;;;;;;;-4.71;100.00;99465.81;5082440;28;20423;-78
2023/02/08 06:06:56;;;;;;;44.22;18.42;;;;;;;-4.67;100.00;99475.47;5069827;28;20507;-79
2023/02/08 06:09:21;;;;;;;38.85;17.63;;;;;;;-4.52;100.00;99501.16;5071836;28;20081;-80
2023/02/08 06:11:47;;;;;;;40.53;16.83;;;;;;;-4.57;100.00;99495.78;5077995;28;20123;-79
2023/02/08 06:14:12;;;;;;;51.92;18.35;;;;;;;-4.62;100.00;99496.50;5089127;28;20063;-79
2023/02/08 06:16:41;;;;;;;45.25;16.65;;;;;;;-4.46;100.00;99517.00;5057670;28;20058;-79
2023/02/08 06:19:06;;;;;;;36.63;14.57;;;;;;;-4.38;100.00;99518.97;5057629;28;20085;-79
2023/02/08 06:21:32;;;;;;;32.78;14.02;;;;;;;-4.32;100.00;99520.88;5074629;28;20449;-79
2023/02/08 06:23:57;;;;;;;33.15;14.98;;;;;;;-4.38;100.00;99511.13;5065320;28;20035;-79
2023/02/08 06:26:45;;;;;;;38.55;13.70;;;;;;;-4.26;100.00;99518.41;5077579;28;20096;-84
2023/02/08 06:29:47;;;;;;;36.25;15.77;;;;;;;-4.14;100.00;99525.72;5077915;28;20494;-79
2023/02/08 06:32:13;;;;;;;38.67;16.08;;;;;;;-4.20;100.00;99487.25;5062382;28;20027;-80
2023/02/08 06:34:38;;;;;;;31.85;14.50;;;;;;;-3.99;100.00;99500.00;5061358;28;20031;-78
2023/02/08 06:37:04;;;;;;;78.28;31.60;;;;;;;-3.91;100.00;99499.34;5082479;28;20023;-80
2023/02/08 06:39:30;;;;;;;50.65;18.27;;;;;;;-3.76;100.00;99498.88;5062462;28;20030;-79
2023/02/08 06:41:56;;;;;;;70.90;28.15;;;;;;;-3.67;100.00;99509.56;5064742;28;20032;-79
2023/02/08 06:44:22;;;;;;;53.30;23.88;;;;;;;-3.66;100.00;99492.16;5065284;28;20503;-79
2023/02/08 06:46:48;;;;;;;43.30;15.52;;;;;;;-3.75;100.00;99476.25;5068348;28;20126;-79
2023/02/08 06:49:13;;;;;;;54.53;23.20;;;;;;;-3.61;100.00;99494.03;5068566;28;20036;-78
2023/02/08 06:51:39;;;;;;;56.58;23.63;;;;;;;-3.61;100.00;99487.91;5070929;28;20024;-80
2023/02/08 06:54:08;;;;;;;50.08;20.08;;;;;;;-3.49;100.00;99511.75;5086893;28;20028;-79
2023/02/08 06:56:34;;;;;;;41.67;17.45;;;;;;;-3.57;100.00;99474.09;5089665;28;20504;-79
2023/02/08 06:59:00;;;;;;;47.70;18.17;;;;;;;-3.51;100.00;99497.78;5068486;28;20122;-79
2023/02/08 07:01:25;;;;;;;57.25;22.77;;;;;;;-3.54;100.00;99490.75;5085110;28;20391;-80
2023/02/08 07:03:51;;;;;;;53.10;20.83;;;;;;;-3.58;100.00;99488.88;5066352;28;20024;-79
2023/02/08 07:06:18;;;;;;;45.30;16.88;;;;;;;-3.50;100.00;99508.25;5074058;28;20024;-79
2023/02/08 07:08:44;;;;;;;41.88;17.30;;;;;;;-3.34;100.00;99523.50;5057975;28;20049;-78
2023/02/08 07:11:12;;;;;;;33.88;14.85;;;;;;;-3.34;100.00;99530.44;5074696;28;20028;-79
2023/02/08 07:13:37;;;;;;;38.65;14.88;;;;;;;-3.43;100.00;99532.84;5056512;28;20111;-79
2023/02/08 07:16:04;;;;;;;34.67;13.63;;;;;;;-3.46;100.00;99531.03;5067234;28;20142;-78
2023/02/08 07:18:29;;;;;;;33.33;15.35;;;;;;;-3.26;100.00;99536.72;5073386;28;20115;-79
2023/02/08 07:20:55;;;;;;;31.52;14.63;;;;;;;-3.19;100.00;99524.69;5073568;28;20055;-78
2023/02/08 07:23:21;;;;;;;42.38;17.13;;;;;;;-3.10;100.00;99525.78;5073329;28;20036;-78
2023/02/08 07:25:58;;;;;;;50.10;18.05;;;;;;;-3.02;100.00;99539.97;5079703;28;20497;-79
2023/02/08 07:28:24;;;;;;;50.30;17.98;;;;;;;-3.04;100.00;99546.88;5071025;28;20063;-79
2023/02/08 07:30:50;;;;;;;40.22;16.95;;;;;;;-3.04;100.00;99528.56;5070232;28;20067;-79
2023/02/08 07:33:15;;;;;;;45.83;19.17;;;;;;;-2.80;100.00;99544.81;5055762;28;20097;-79
2023/02/08 07:35:41;;;;;;;47.72;17.88;;;;;;;-2.66;100.00;99545.16;5081526;28;20483;-77
2023/02/08 07:38:06;;;;;;;47.08;18.52;;;;;;;-2.60;100.00;99532.19;5067698;28;20043;-78
2023/02/08 07:40:32;;;;;;;51.85;19.92;;;;;;;-2.52;100.00;99545.47;5056863;28;20050;-78
2023/02/08 07:42:57;;;;;;;47.78;20.80;;;;;;;-2.60;100.00;99515.59;5057184;28;20044;-78
2023/02/08 07:45:25;;;;;;;54.17;21.38;;;;;;;-2.55;100.00;99532.31;5073052;28;20024;-78
2023/02/08 07:48:20;;;;;;;57.08;22.80;;;;;;;-2.50;100.00;99546.38;5062214;28;20063;-80
2023/02/08 07:51:06;;;;;;;52.92;22.13;;;;;;;-2.42;100.00;99555.25;5091178;28;20026;-80
2023/02/08 07:53:32;;;;;;;56.58;21.50;;;;;;;-2.46;100.00;99533.34;5073052;28;20081;-76
2023/02/08 07:55:58;;;;;;;53.40;22.38;;;;;;;-2.38;100.00;99557.13;5064810;28;20036;-77
2023/02/08 07:58:24;;;;;;;50.92;21.73;;;;;;;-2.24;100.00;99560.91;5074361;28;20177;-76
2023/02/08 08:00:50;;;;;;;53.08;22.00;;;;;;;-2.12;100.00;99568.16;5077155;28;20385;-78
2023/02/08 08:03:15;;;;;;;47.83;19.15;;;;;;;-2.11;100.00;99562.94;5074950;28;20415;-78
2023/02/08 08:05:41;;;;;;;45.95;20.25;;;;;;;-2.10;100.00;99569.06;5065073;28;20032;-76
2023/02/08 08:08:08;;;;;;;43.53;19.83;;;;;;;-2.14;100.00;99569.84;5064063;28;20114;-77
2023/02/08 08:10:33;;;;;;;56.50;22.13;;;;;;;-2.21;100.00;99585.44;5070475;28;20032;-77
2023/02/08 08:12:59;;;;;;;41.58;18.58;;;;;;;-2.48;100.00;99565.63;5056592;28;20024;-77
2023/02/08 08:15:24;;;;;;;52.72;22.63;;;;;;;-2.23;100.00;99596.75;5074471;28;20127;-78
2023/02/08 08:17:50;;;;;;;47.17;18.35;;;;;;;-2.31;100.00;99585.22;5074988;28;20028;-77
2023/02/08 08:20:16;;;;;;;48.63;18.20;;;;;;;-2.37;100.00;99585.94;5076266;28;20024;-79
2023/02/08 08:22:41;;;;;;;42.47;17.77;;;;;;;-2.32;100.00;99614.88;5076515;28;20480;-77
2023/02/08 08:25:07;;;;;;;44.08;17.38;;;;;;;-2.20;100.00;99625.63;5093432;28;20032;-78
2023/02/08 08:27:33;;;;;;;46.10;17.60;;;;;;;-2.54;100.00;99624.00;5076480;28;20035;-78
2023/02/08 08:30:00;;;;;;;50.05;20.08;;;;;;;-2.50;100.00;99630.19;5076431;28;20388;-77
2023/02/08 08:32:28;;;;;;;47.85;20.65;;;;;;;-2.38;100.00;99635.72;5091896;28;20024;-77
2023/02/08 08:34:54;;;;;;;59.55;19.80;;;;;;;-2.35;100.00;99625.31;5075866;28;20071;-78
2023/02/08 08:37:19;;;;;;;45.90;20.55;;;;;;;-2.21;100.00;99631.72;5078945;28;20064;-79
2023/02/08 08:39:45;;;;;;;65.43;26.77;;;;;;;-1.69;100.00;99642.44;5055894;28;20032;-77
2023/02/08 08:42:10;;;;;;;55.88;25.00;;;;;;;-1.36;100.00;99637.00;5055968;28;20535;-78
2023/02/08 08:44:36;;;;;;;55.13;25.05;;;;;;;-0.96;100.00;99629.81;5076058;28;20028;-77
2023/02/08 08:47:01;;;;;;;60.90;25.30;;;;;;;-0.69;100.00;99601.38;5073223;28;20413;-76
2023/02/08 08:49:28;;;;;;;63.35;26.73;;;;;;;-0.27;100.00;99606.38;5060117;28;20410;-76
2023/02/08 08:51:54;;;;;;;62.10;27.50;;;;;;;-0.39;100.00;99559.75;5072697;28;20039;-77
2023/02/08 08:54:20;;;;;;;64.07;27.25;;;;;;;-0.07;100.00;99602.28;5056194;28;20020;-78
2023/02/08 08:56:46;;;;;;;57.55;24.27;;;;;;;-0.28;100.00;99583.59;5073645;28;20511;-76
2023/02/08 08:59:12;;;;;;;53.30;21.23;;;;;;;-0.77;100.00;99580.22;5063718;28;20028;-79
2023/02/08 09:01:37;;;;;;;43.65;17.95;;;;;;;-0.86;100.00;99592.34;5092847;28;20023;-78
2023/02/08 09:04:03;;;;;;;47.08;18.38;;;;;;;-0.67;100.00;99600.53;5081312;28;20453;-78
2023/02/08 09:06:29;;;;;;;39.45;18.60;;;;;;;-0.45;100.00;99571.94;5072470;28;20020;-79
2023/02/08 09:08:55;;;;;;;38.45;15.93;;;;;;;-0.25;100.00;99608.19;5054961;28;20479;-78
2023/02/08 09:11:20;;;;;;;45.47;17.70;;;;;;;-0.39;100.00;99579.91;5068302;28;20486;-79
2023/02/08 09:13:46;;;;;;;37.20;17.42;;;;;;;-0.56;100.00;99556.91;5062660;28;20028;-78
2023/02/08 09:16:16;;;;;;;33.40;15.48;;;;;;;0.01;100.00;99621.66;5066658;28;20574;-78
2023/02/08 09:18:43;;;;;;;41.60;18.00;;;;;;;0.22;100.00;99595.63;5063392;28;20038;-78
2023/02/08 09:21:10;;;;;;;48.83;20.02;;;;;;;0.10;100.00;99592.84;5071569;28;20551;-78
2023/02/08 09:23:36;;;;;;;46.50;18.73;;;;;;;0.14;100.00;99604.28;5063263;28;20410;-78
2023/02/08 09:26:04;;;;;;;48.33;19.30;;;;;;;-0.21;100.00;99602.06;5054943;28;20103;-78
2023/02/08 09:28:29;;;;;;;47.70;19.90;;;;;;;-0.55;100.00;99595.47;5080030;28;20032;-78
2023/02/08 09:30:55;;;;;;;47.95;19.02;;;;;;;-0.75;100.00;99622.28;5055452;28;20039;-79
2023/02/08 09:33:20;;;;;;;57.75;20.63;;;;;;;-1.02;100.00;99616.59;5066566;28;20107;-78
2023/02/08 09:35:46;;;;;;;42.08;18.40;;;;;;;-1.19;100.00;99611.91;5058197;28;20028;-77
2023/02/08 09:38:12;;;;;;;49.25;20.92;;;;;;;-0.91;100.00;99639.53;5067651;28;20107;-77
2023/02/08 09:40:44;;;;;;;36.80;16.67;;;;;;;-1.14;100.00;99597.13;5077519;28;20035;-77
2023/02/08 09:43:18;;;;;;;37.50;15.95;;;;;;;-1.23;100.00;99625.84;5073571;28;20381;-77
2023/02/08 09:45:49;;;;;;;35.10;15.68;;;;;;;-1.25;100.00;99627.56;5054690;28;20029;-77
2023/02/08 09:48:23;;;;;;;34.35;14.38;;;;;;;-1.38;100.00;99632.53;5054744;28;20029;-77
2023/02/08 09:51:19;;;;;;;59.35;22.33;;;;;;;-1.69;100.00;99637.19;5058970;28;20112;-76
2023/02/08 09:53:49;;;;;;;46.85;20.33;;;;;;;-1.82;100.00;99653.56;5067269;28;20032;-77
2023/02/08 09:56:20;;;;;;;38.80;17.15;;;;;;;-2.01;100.00;99646.16;5054419;28;20029;-77
2023/02/08 09:58:49;;;;;;;40.55;14.82;;;;;;;-1.82;100.00;99658.81;5065652;28;20094;-78
2023/02/08 10:01:22;;;;;;;38.10;14.55;;;;;;;-1.73;100.00;99668.59;5059625;28;20403;-76
2023/02/08 10:03:50;;;;;;;35.50;15.57;;;;;;;-1.95;100.00;99638.44;5071145;28;20079;-77
2023/02/08 10:06:17;;;;;;;41.88;15.82;;;;;;;-1.83;100.00;99657.03;5054466;28;20029;-78
2023/02/08 10:08:43;;;;;;;48.25;19.00;;;;;;;-2.21;100.00;99603.78;5058468;28;20025;-77
2023/02/08 10:11:09;;;;;;;37.88;15.90;;;;;;;-1.66;100.00;99660.88;5054261;28;20071;-77
2023/02/08 10:13:38;;;;;;;37.92;14.75;;;;;;;-1.59;100.00;99650.50;5075259;28;20047;-77
2023/02/08 10:16:18;;;;;;;30.88;13.68;;;;;;;-1.80;100.00;99637.84;5090661;28;20066;-78
2023/02/08 10:19:02;;;;;;;34.90;15.43;;;;;;;-1.81;100.00;99646.56;5067211;28;20028;-77
2023/02/08 10:21:38;;;;;;;43.42;17.65;;;;;;;-1.69;100.00;99657.28;5053517;28;20500;-77
2023/02/08 10:24:17;;;;;;;35.42;17.35;;;;;;;-1.39;100.00;99657.03;5038030;28;20119;-77
2023/02/08 10:26:48;;;;;;;35.72;15.23;;;;;;;-1.18;100.00;99639.06;5057087;28;20058;-78
2023/02/08 10:29:20;;;;;;;25.43;10.63;;;;;;;-1.08;100.00;99648.88;5064613;28;20042;-78
2023/02/08 10:32:04;;;;;;;28.67;13.67;;;;;;;-0.82;100.00;99631.81;5079070;28;20024;-77
2023/02/08 10:35:01;;;;;;;36.60;15.32;;;;;;;-0.58;100.00;99634.81;5099590;28;20501;-77
2023/02/08 10:37:37;;;;;;;39.75;16.45;;;;;;;-0.76;100.00;99594.25;5073564;28;20026;-77
2023/02/08 10:40:19;;;;;;;31.27;11.95;;;;;;;-0.43;100.00;99628.06;5061595;28;20114;-77
2023/02/08 10:42:54;;;;;;;;;;;;;;;-0.24;100.00;99619.56;5108340;28;20031;-77
2023/02/08 10:45:28;;;;;;;28.48;11.48;;;;;;;-0.72;100.00;99593.44;5066855;28;19912;-77
2023/02/08 10:48:14;;;;;;;46.85;18.25;;;;;;;-0.72;100.00;99602.22;5061139;28;20039;-78
2023/02/08 10:50:43;;;;;;;31.27;13.15;;;;;;;-0.45;100.00;99579.81;5061074;28;20023;-76
2023/02/08 10:53:15;;;;;;;28.83;14.20;;;;;;;-0.21;100.00;99603.81;5064454;28;20419;-77
2023/02/08 10:55:42;;;;;;;30.80;12.98;;;;;;;0.30;100.00;99616.78;5063913;28;20028;-78
2023/02/08 10:58:13;;;;;;;27.48;12.52;;;;;;;0.40;100.00;99571.28;5080542;28;20098;-79
2023/02/08 11:00:39;;;;;;;34.08;11.27;;;;;;;0.71;100.00;99588.28;5065052;28;20126;-78
2023/02/08 11:03:21;;;;;;;25.85;11.98;;;;;;;1.69;96.77;99596.09;5071710;28;20031;-78
2023/02/08 11:05:47;;;;;;;31.58;12.63;;;;;;;1.87;91.76;99548.69;5063596;28;20577;-78
2023/02/08 11:08:18;;;;;;;35.45;14.75;;;;;;;2.84;88.68;99585.97;5065493;28;20031;-79
2023/02/08 11:10:59;;;;;;;24.80;10.75;;;;;;;3.51;76.18;99565.69;5075582;28;20022;-78
2023/02/08 11:13:31;;;;;;;103.70;41.50;;;;;;;2.60;84.53;99537.50;5089957;28;20023;-79
2023/02/08 11:15:59;;;;;;;44.20;17.65;;;;;;;2.14;83.80;99549.69;5058686;28;20048;-77
2023/02/08 11:18:27;;;;;;;27.23;11.38;;;;;;;2.02;86.26;99546.13;5070128;28;20544;-78
2023/02/08 11:21:01;;;;;;;25.38;11.95;;;;;;;2.11;83.22;99527.69;5072029;28;20024;-78
2023/02/08 11:23:32;;;;;;;27.08;12.43;;;;;;;2.63;81.57;99552.47;5056368;28;20032;-78
2023/02/08 11:26:18;;;;;;;32.40;14.00;;;;;;;3.11;77.17;99547.22;5054666;28;20132;-78
2023/02/08 11:29:08;;;;;;;37.40;15.13;;;;;;;4.21;73.25;99561.97;5065654;28;20388;-77